createdAt,value
2018-03-24T00:02:08.156Z,89.30
2018-03-24T00:04:35.759Z,89.34
2018-03-24T00:07:03.368Z,89.20
2018-03-24T00:09:31.010Z,88.35
2018-03-24T00:11:58.684Z,87.76
2018-03-24T00:14:26.442Z,88.02
2018-03-24T00:16:54.095Z,88.01
2018-03-24T00:19:22.137Z,88.54
2018-03-24T00:21:49.850Z,89.20
2018-03-24T00:24:17.506Z,89.26
2018-03-24T00:26:45.083Z,89.30
2018-03-24T00:29:12.692Z,89.32
2018-03-24T00:31:40.393Z,89.71
2018-03-24T00:34:07.990Z,90.10
2018-03-24T00:36:35.648Z,90.71
2018-03-24T00:39:03.355Z,90.17
2018-03-24T00:41:32.572Z,90.16
2018-03-24T00:44:00.642Z,89.70
2018-03-24T00:46:29.049Z,89.27
2018-03-24T00:48:56.674Z,89.15
2018-03-24T00:51:24.361Z,89.68
2018-03-24T00:53:52.119Z,89.91
2018-03-24T00:56:20.396Z,90.12
2018-03-24T00:58:48.062Z,90.40
2018-03-24T01:01:15.736Z,90.55
2018-03-24T01:03:43.380Z,89.92
2018-03-24T01:06:11.056Z,89.39
2018-03-24T01:08:38.682Z,89.27
2018-03-24T01:11:06.614Z,89.35
2018-03-24T01:13:34.439Z,89.20
2018-03-24T01:16:02.020Z,88.74
2018-03-24T01:18:29.607Z,89.18
2018-03-24T01:20:57.447Z,89.51
2018-03-24T01:23:25.028Z,89.45
2018-03-24T01:25:53.211Z,89.42
2018-03-24T01:28:20.917Z,88.67
2018-03-24T01:30:49.247Z,88.75
2018-03-24T01:33:16.881Z,88.95
2018-03-24T01:35:44.648Z,89.13
2018-03-24T01:38:12.305Z,89.37
2018-03-24T01:40:40.040Z,89.40
2018-03-24T01:43:07.959Z,89.23
2018-03-24T01:45:36.190Z,89.25
2018-03-24T01:48:03.897Z,89.33
2018-03-24T01:50:31.533Z,89.25
2018-03-24T01:52:59.153Z,88.96
2018-03-24T01:55:27.494Z,89.48
2018-03-24T01:57:55.068Z,89.61
2018-03-24T02:00:22.713Z,89.55
2018-03-24T02:02:50.342Z,89.73
2018-03-24T02:05:17.946Z,90.14
2018-03-24T02:07:45.570Z,90.06
2018-03-24T02:10:13.214Z,89.90
2018-03-24T02:12:40.808Z,89.98
2018-03-24T02:15:08.465Z,89.80
2018-03-24T02:17:36.045Z,89.45
2018-03-24T02:20:03.911Z,89.51
2018-03-24T02:22:33.601Z,89.40
2018-03-24T02:25:01.351Z,89.92
2018-03-24T02:27:28.937Z,90.44
2018-03-24T02:29:56.585Z,90.28
2018-03-24T02:32:24.184Z,90.12
2018-03-24T02:34:52.287Z,89.56
2018-03-24T02:37:19.983Z,89.68
2018-03-24T02:39:47.656Z,89.63
2018-03-24T02:42:15.323Z,90.50
2018-03-24T02:44:42.983Z,90.59
2018-03-24T02:47:10.625Z,89.75
2018-03-24T02:49:38.516Z,89.57
2018-03-24T02:52:06.270Z,89.62
2018-03-24T02:54:33.874Z,89.76
2018-03-24T02:57:01.464Z,89.14
2018-03-24T02:59:29.122Z,88.92
2018-03-24T03:01:56.743Z,89.45
2018-03-24T03:04:24.660Z,90.15
2018-03-24T03:06:52.265Z,89.67
2018-03-24T03:09:19.925Z,89.40
2018-03-24T03:11:47.520Z,89.88
2018-03-24T03:14:15.152Z,90.48
2018-03-24T03:16:42.738Z,90.17
2018-03-24T03:19:10.418Z,89.86
2018-03-24T03:21:49.904Z,89.73
2018-03-24T03:24:19.555Z,89.60
2018-03-24T03:26:47.319Z,89.22
2018-03-24T03:29:14.927Z,89.18
2018-03-24T03:31:42.703Z,89.12
2018-03-24T03:34:10.370Z,88.79
2018-03-24T03:36:37.973Z,89.01
2018-03-24T03:39:05.695Z,89.13
2018-03-24T03:41:33.288Z,89.10
2018-03-24T03:44:00.884Z,89.54
2018-03-24T03:46:29.380Z,89.88
2018-03-24T03:48:56.954Z,89.85
2018-03-24T03:51:24.579Z,89.78
2018-03-24T03:53:52.233Z,89.76
2018-03-24T03:56:19.809Z,89.89
2018-03-24T03:58:47.458Z,89.78
2018-03-24T04:01:15.065Z,89.55
2018-03-24T04:03:42.724Z,89.31
2018-03-24T04:06:10.356Z,89.76
2018-03-24T04:08:37.994Z,90.18
2018-03-24T04:11:05.650Z,90.01
2018-03-24T04:13:33.231Z,89.66
2018-03-24T04:16:01.022Z,89.53
2018-03-24T04:18:28.637Z,89.50
2018-03-24T04:20:56.286Z,89.48
2018-03-24T04:23:23.927Z,89.41
2018-03-24T04:25:51.580Z,88.88
2018-03-24T04:28:19.284Z,89.26
2018-03-24T04:30:46.882Z,89.45
2018-03-24T04:33:14.537Z,89.48
2018-03-24T04:35:42.131Z,89.43
2018-03-24T04:38:09.788Z,89.47
2018-03-24T04:40:37.388Z,89.12
2018-03-24T04:43:05.370Z,88.88
2018-03-24T04:45:33.062Z,88.91
2018-03-24T04:48:00.646Z,89.12
2018-03-24T04:50:28.706Z,89.13
2018-03-24T04:52:56.363Z,88.53
2018-03-24T04:55:24.016Z,88.24
2018-03-24T04:57:51.664Z,88.10
2018-03-24T05:00:19.295Z,87.63
2018-03-24T05:02:47.740Z,88.07
2018-03-24T05:05:15.330Z,88.58
2018-03-24T05:07:43.028Z,87.89
2018-03-24T05:10:10.833Z,87.96
2018-03-24T05:12:38.468Z,87.56
2018-03-24T05:15:06.171Z,87.33
2018-03-24T05:17:33.822Z,87.15
2018-03-24T05:20:01.632Z,87.07
2018-03-24T05:22:29.220Z,87.18
2018-03-24T05:24:56.861Z,86.93
2018-03-24T05:27:24.618Z,86.69
2018-03-24T05:29:52.215Z,86.57
2018-03-24T05:32:19.859Z,87.01
2018-03-24T05:34:47.506Z,86.09
2018-03-24T05:37:15.333Z,85.96
2018-03-24T05:39:42.985Z,85.37
2018-03-24T05:42:10.585Z,85.00
2018-03-24T05:44:38.391Z,84.62
2018-03-24T05:47:06.072Z,84.27
2018-03-24T05:49:34.289Z,84.34
2018-03-24T05:52:02.217Z,84.00
2018-03-24T05:54:30.058Z,84.94
2018-03-24T05:56:57.848Z,85.46
2018-03-24T05:59:25.544Z,84.06
2018-03-24T06:01:53.491Z,83.64
2018-03-24T06:04:21.154Z,83.83
2018-03-24T06:06:48.799Z,83.88
2018-03-24T06:09:16.403Z,83.42
2018-03-24T06:11:44.089Z,83.26
2018-03-24T06:14:11.791Z,83.43
2018-03-24T06:16:39.454Z,83.63
2018-03-24T06:19:07.079Z,83.76
2018-03-24T06:21:34.734Z,83.37
2018-03-24T06:24:02.398Z,82.91
2018-03-24T06:26:30.230Z,82.76
2018-03-24T06:28:58.140Z,84.97
2018-03-24T06:31:28.262Z,84.61
2018-03-24T06:33:56.241Z,84.84
2018-03-24T06:36:27.858Z,83.50
2018-03-24T06:38:55.527Z,82.44
2018-03-24T06:41:23.173Z,82.13
2018-03-24T06:43:50.822Z,80.83
2018-03-24T06:46:18.553Z,78.69
2018-03-24T06:48:46.216Z,77.00
2018-03-24T06:51:13.927Z,75.66
2018-03-24T06:53:41.618Z,76.01
2018-03-24T06:56:09.266Z,74.30
2018-03-24T06:58:37.706Z,73.50
2018-03-24T07:01:05.343Z,74.13
2018-03-24T07:03:33.029Z,71.29
2018-03-24T07:06:01.273Z,70.19
2018-03-24T07:08:29.871Z,69.94
2018-03-24T07:10:57.757Z,70.59
2018-03-24T07:13:25.625Z,69.58
2018-03-24T07:15:53.472Z,69.51
2018-03-24T07:18:21.061Z,69.60
2018-03-24T07:20:48.797Z,68.92
2018-03-24T07:23:16.549Z,68.72
2018-03-24T07:25:45.559Z,68.57
2018-03-24T07:28:13.445Z,67.74
2018-03-24T07:30:41.406Z,68.84
2018-03-24T07:33:09.109Z,70.51
2018-03-24T07:35:37.314Z,71.82
2018-03-24T07:38:05.119Z,69.33
2018-03-24T07:40:33.432Z,69.00
2018-03-24T07:43:01.049Z,67.24
2018-03-24T07:45:28.805Z,67.62
2018-03-24T07:47:56.522Z,66.34
2018-03-24T07:50:24.355Z,67.52
2018-03-24T07:52:52.364Z,64.59
2018-03-24T07:55:20.192Z,65.00
2018-03-24T07:57:48.472Z,65.66
2018-03-24T08:00:16.664Z,65.92
2018-03-24T08:02:44.444Z,62.46
2018-03-24T08:05:12.377Z,60.04
2018-03-24T08:07:40.223Z,63.30
2018-03-24T08:10:08.096Z,63.17
2018-03-24T08:12:36.711Z,61.51
2018-03-24T08:15:04.324Z,59.38
2018-03-24T08:17:32.606Z,58.51
2018-03-24T08:20:01.413Z,56.03
2018-03-24T08:22:29.694Z,59.12
2018-03-24T08:24:57.663Z,57.33
2018-03-24T08:27:25.336Z,57.53
2018-03-24T08:29:53.422Z,56.18
2018-03-24T08:32:21.040Z,55.23
2018-03-24T08:34:48.933Z,55.89
2018-03-24T08:37:16.602Z,53.71
2018-03-24T08:39:44.433Z,52.00
2018-03-24T08:42:13.565Z,53.32
2018-03-24T08:44:41.457Z,52.11
2018-03-24T08:47:09.929Z,51.02
2018-03-24T08:49:37.593Z,48.62
2018-03-24T08:52:05.910Z,47.38
2018-03-24T08:54:34.429Z,51.31
2018-03-24T08:57:02.402Z,50.39
2018-03-24T08:59:30.014Z,50.95
2018-03-24T09:01:57.705Z,47.42
2018-03-24T09:04:25.548Z,42.39
2018-03-24T09:06:53.332Z,43.09
2018-03-24T09:09:21.800Z,45.51
2018-03-24T09:11:49.470Z,46.65
2018-03-24T09:14:17.295Z,44.01
2018-03-24T09:16:44.990Z,44.67
2018-03-24T09:19:12.654Z,44.54
2018-03-24T09:21:41.375Z,43.62
2018-03-24T09:24:09.072Z,43.36
2018-03-24T09:26:36.752Z,42.02
2018-03-24T09:29:05.476Z,43.77
2018-03-24T09:31:33.561Z,43.48
2018-03-24T09:34:02.058Z,41.58
2018-03-24T09:36:32.289Z,39.26
2018-03-24T09:39:00.747Z,41.39
2018-03-24T09:41:28.963Z,41.80
2018-03-24T09:43:56.736Z,40.09
2018-03-24T09:46:24.434Z,40.24
2018-03-24T09:48:52.115Z,41.04
2018-03-24T09:51:19.852Z,41.15
2018-03-24T09:53:47.564Z,37.83
2018-03-24T09:56:15.249Z,40.84
2018-03-24T09:58:42.958Z,40.24
2018-03-24T10:01:10.795Z,41.61
2018-03-24T10:03:39.152Z,40.38
2018-03-24T10:06:07.067Z,40.70
2018-03-24T10:08:34.707Z,41.03
2018-03-24T10:11:02.391Z,39.78
2018-03-24T10:13:30.165Z,39.93
2018-03-24T10:15:57.829Z,39.35
2018-03-24T10:18:25.673Z,39.79
2018-03-24T10:20:56.888Z,39.37
2018-03-24T10:23:33.324Z,39.53
2018-03-24T10:26:01.183Z,38.75
2018-03-24T10:28:29.381Z,38.49
2018-03-24T10:30:57.106Z,37.83
2018-03-24T10:33:25.568Z,38.03
2018-03-24T10:35:53.440Z,39.08
2018-03-24T10:38:21.426Z,36.07
2018-03-24T10:40:49.271Z,38.93
2018-03-24T10:43:22.437Z,38.92
2018-03-24T10:45:50.151Z,37.60
2018-03-24T10:48:17.795Z,36.84
2018-03-24T10:50:45.477Z,37.76
2018-03-24T10:53:13.085Z,38.55
2018-03-24T10:55:40.754Z,37.13
2018-03-24T10:58:08.361Z,36.54
2018-03-24T11:00:36.086Z,37.04
2018-03-24T11:03:03.901Z,36.31
2018-03-24T11:05:31.764Z,36.86
2018-03-24T11:07:59.833Z,36.42
2018-03-24T11:10:27.466Z,36.78
2018-03-24T11:12:55.152Z,35.68
2018-03-24T11:15:22.805Z,36.39
2018-03-24T11:17:50.415Z,36.25
2018-03-24T11:20:18.124Z,38.59
2018-03-24T11:22:47.077Z,36.28
2018-03-24T11:25:14.799Z,34.83
2018-03-24T11:27:42.671Z,35.51
2018-03-24T11:30:11.246Z,34.60
2018-03-24T11:32:38.929Z,34.83
2018-03-24T11:35:07.185Z,35.26
2018-03-24T11:37:36.283Z,35.89
2018-03-24T11:40:04.558Z,35.57
2018-03-24T11:42:32.526Z,34.11
2018-03-24T11:45:00.147Z,34.86
2018-03-24T11:47:30.160Z,33.67
2018-03-24T11:49:57.875Z,34.03
2018-03-24T11:52:25.731Z,35.52
2018-03-24T11:54:53.422Z,34.24
2018-03-24T11:57:21.122Z,33.26
2018-03-24T11:59:48.780Z,33.41
2018-03-24T12:02:16.439Z,33.65
2018-03-24T12:04:44.987Z,33.22
2018-03-24T12:07:13.790Z,33.94
2018-03-24T12:09:41.391Z,33.25
2018-03-24T12:12:09.093Z,32.88
2018-03-24T12:14:36.761Z,33.25
2018-03-24T12:17:04.925Z,33.00
2018-03-24T12:19:32.870Z,33.46
2018-03-24T12:22:00.486Z,32.61
2018-03-24T12:24:28.321Z,33.74
2018-03-24T12:26:56.390Z,33.27
2018-03-24T12:29:23.987Z,33.08
2018-03-24T12:31:51.712Z,33.58
2018-03-24T12:34:20.048Z,33.22
2018-03-24T12:36:48.469Z,33.94
2018-03-24T12:39:16.191Z,33.22
2018-03-24T12:41:43.966Z,33.55
2018-03-24T12:44:11.632Z,33.00
2018-03-24T12:46:39.343Z,32.83
2018-03-24T12:49:06.941Z,32.90
2018-03-24T12:51:34.744Z,33.88
2018-03-24T12:54:02.596Z,33.77
2018-03-24T12:56:30.286Z,32.78
2018-03-24T12:58:58.049Z,32.02
2018-03-24T13:01:25.651Z,31.58
2018-03-24T13:03:53.462Z,31.99
2018-03-24T13:06:21.647Z,33.87
2018-03-24T13:08:49.572Z,33.83
2018-03-24T13:11:17.794Z,33.25
2018-03-24T13:13:45.548Z,32.80
2018-03-24T13:16:13.207Z,32.10
2018-03-24T13:18:42.551Z,34.65
2018-03-24T13:21:11.289Z,33.46
2018-03-24T13:23:39.067Z,33.48
2018-03-24T13:26:06.944Z,34.35
2018-03-24T13:28:35.222Z,34.25
2018-03-24T13:31:02.913Z,34.11
2018-03-24T13:33:31.348Z,35.59
2018-03-24T13:35:59.167Z,35.17
2018-03-24T13:38:26.900Z,35.07
2018-03-24T13:40:54.662Z,34.97
2018-03-24T13:43:22.321Z,34.79
2018-03-24T13:45:51.334Z,34.48
2018-03-24T13:48:18.982Z,35.42
2018-03-24T13:50:46.638Z,34.14
2018-03-24T13:53:14.503Z,36.03
2018-03-24T13:55:42.841Z,35.56
2018-03-24T13:58:11.514Z,34.86
2018-03-24T14:00:39.231Z,35.20
2018-03-24T14:03:07.872Z,36.05
2018-03-24T14:05:35.493Z,37.16
2018-03-24T14:08:03.364Z,36.12
2018-03-24T14:10:31.880Z,36.17
2018-03-24T14:13:00.362Z,35.69
2018-03-24T14:15:28.148Z,35.40
2018-03-24T14:17:56.031Z,34.92
2018-03-24T14:20:23.725Z,36.09
2018-03-24T14:22:51.907Z,36.01
2018-03-24T14:25:19.541Z,36.00
2018-03-24T14:27:48.094Z,36.98
2018-03-24T14:30:15.734Z,36.25
2018-03-24T14:32:43.394Z,37.54
2018-03-24T14:35:11.073Z,36.62
2018-03-24T14:37:38.684Z,35.45
2018-03-24T14:40:06.362Z,35.60
2018-03-24T14:42:34.203Z,35.80
2018-03-24T14:45:01.867Z,36.55
2018-03-24T14:47:29.472Z,36.22
2018-03-24T14:49:57.935Z,35.86
2018-03-24T14:52:25.630Z,37.17
2018-03-24T14:54:53.260Z,36.83
2018-03-24T14:57:20.931Z,36.02
2018-03-24T14:59:48.588Z,37.03
2018-03-24T15:02:16.179Z,37.62
2018-03-24T15:04:43.831Z,37.55
2018-03-24T15:07:11.490Z,37.18
2018-03-24T15:09:39.247Z,37.74
2018-03-24T15:12:06.914Z,35.87
2018-03-24T15:14:34.604Z,37.67
2018-03-24T15:17:02.312Z,37.13
2018-03-24T15:19:30.017Z,37.70
2018-03-24T15:21:57.656Z,37.82
2018-03-24T15:24:25.410Z,38.02
2018-03-24T15:26:53.051Z,37.74
2018-03-24T15:29:32.493Z,37.91
2018-03-24T15:32:11.803Z,38.32
2018-03-24T15:34:51.296Z,38.52
2018-03-24T15:37:18.975Z,38.06
2018-03-24T15:39:46.773Z,38.63
2018-03-24T15:42:15.659Z,39.81
2018-03-24T15:44:43.406Z,39.38
2018-03-24T15:47:11.203Z,39.68
2018-03-24T15:49:38.871Z,39.64
2018-03-24T15:52:07.159Z,40.09
2018-03-24T15:54:35.124Z,39.49
2018-03-24T15:57:02.906Z,39.93
2018-03-24T15:59:30.776Z,39.62
2018-03-24T16:01:58.576Z,39.55
2018-03-24T16:04:26.590Z,39.53
2018-03-24T16:06:54.282Z,39.65
2018-03-24T16:09:22.842Z,40.31
2018-03-24T16:11:50.544Z,40.74
2018-03-24T16:14:18.198Z,40.05
2018-03-24T16:16:46.014Z,40.35
2018-03-24T16:19:14.071Z,40.38
2018-03-24T16:21:42.168Z,40.38
2018-03-24T16:24:10.694Z,41.13
2018-03-24T16:26:38.622Z,40.92
2018-03-24T16:29:06.792Z,41.28
2018-03-24T16:31:36.709Z,41.51
2018-03-24T16:34:04.360Z,42.47
2018-03-24T16:36:32.390Z,41.35
2018-03-24T16:39:00.721Z,42.77
2018-03-24T16:41:28.589Z,41.05
2018-03-24T16:43:56.491Z,42.71
2018-03-24T16:46:24.411Z,42.99
2018-03-24T16:48:52.496Z,42.49
2018-03-24T16:51:20.496Z,42.85
2018-03-24T16:53:48.263Z,43.25
2018-03-24T16:56:16.278Z,43.88
2018-03-24T16:58:44.152Z,43.96
2018-03-24T17:01:11.887Z,43.82
2018-03-24T17:03:39.901Z,44.25
2018-03-24T17:06:07.898Z,45.71
2018-03-24T17:08:36.563Z,44.70
2018-03-24T17:11:04.742Z,46.24
2018-03-24T17:13:33.948Z,50.80
2018-03-24T17:16:02.090Z,52.14
2018-03-24T17:18:29.747Z,51.22
2018-03-24T17:20:57.435Z,54.75
2018-03-24T17:23:25.070Z,55.67
2018-03-24T17:25:52.965Z,57.37
2018-03-24T17:28:20.817Z,57.28
2018-03-24T17:30:48.486Z,58.25
2018-03-24T17:33:16.640Z,59.22
2018-03-24T17:35:44.622Z,57.88
2018-03-24T17:38:12.500Z,58.45
2018-03-24T17:40:40.165Z,59.13
2018-03-24T17:43:08.178Z,59.91
2018-03-24T17:45:36.118Z,60.48
2018-03-24T17:48:04.039Z,60.74
2018-03-24T17:50:32.008Z,59.80
2018-03-24T17:52:59.869Z,60.13
2018-03-24T17:55:27.541Z,61.24
2018-03-24T17:57:55.997Z,60.71
2018-03-24T18:00:25.597Z,59.93
2018-03-24T18:02:53.418Z,61.03
2018-03-24T18:05:21.352Z,62.70
2018-03-24T18:07:49.982Z,62.62
2018-03-24T18:10:17.899Z,63.40
2018-03-24T18:12:46.725Z,63.84
2018-03-24T18:15:16.663Z,64.23
2018-03-24T18:17:44.521Z,64.31
2018-03-24T18:20:12.560Z,64.52
2018-03-24T18:22:40.651Z,65.33
2018-03-24T18:25:08.706Z,63.38
2018-03-24T18:27:37.449Z,63.84
2018-03-24T18:30:06.025Z,66.01
2018-03-24T18:32:35.116Z,66.93
2018-03-24T18:35:04.860Z,65.97
2018-03-24T18:37:32.860Z,65.89
2018-03-24T18:40:00.846Z,66.07
2018-03-24T18:42:28.949Z,64.18
2018-03-24T18:44:57.457Z,64.40
2018-03-24T18:47:25.159Z,65.66
2018-03-24T18:49:53.658Z,65.27
2018-03-24T18:52:22.035Z,66.18
2018-03-24T18:54:50.096Z,67.21
2018-03-24T18:57:20.565Z,66.72
2018-03-24T18:59:49.119Z,66.71
2018-03-24T19:02:17.861Z,65.69
2018-03-24T19:04:45.960Z,65.63
2018-03-24T19:07:15.422Z,65.49
2018-03-24T19:09:43.733Z,66.43
2018-03-24T19:12:11.935Z,65.26
2018-03-24T19:14:40.364Z,66.57
2018-03-24T19:17:09.398Z,65.97
2018-03-24T19:19:37.962Z,65.85
2018-03-24T19:22:06.889Z,66.60
2018-03-24T19:24:35.945Z,66.01
2018-03-24T19:27:04.386Z,67.12
2018-03-24T19:29:32.917Z,67.28
2018-03-24T19:32:02.633Z,68.66
2018-03-24T19:34:31.276Z,69.31
2018-03-24T19:36:59.243Z,68.90
2018-03-24T19:39:27.777Z,68.85
2018-03-24T19:41:56.036Z,69.32
2018-03-24T19:44:24.042Z,70.52
2018-03-24T19:46:53.691Z,71.39
2018-03-24T19:49:21.976Z,71.61
2018-03-24T19:51:49.988Z,70.78
2018-03-24T19:54:18.810Z,71.71
2018-03-24T19:56:47.017Z,71.36
2018-03-24T19:59:15.491Z,71.72
2018-03-24T20:01:43.679Z,70.49
2018-03-24T20:04:12.395Z,70.54
2018-03-24T20:06:40.863Z,70.18
2018-03-24T20:09:08.816Z,70.54
2018-03-24T20:11:36.862Z,67.14
2018-03-24T20:14:04.930Z,70.27
2018-03-24T20:16:33.792Z,71.58
2018-03-24T20:19:02.140Z,72.89
2018-03-24T20:21:30.807Z,71.79
2018-03-24T20:23:58.834Z,70.78
2018-03-24T20:26:28.152Z,69.77
2018-03-24T20:28:56.169Z,71.31
2018-03-24T20:31:25.516Z,71.33
2018-03-24T20:33:53.908Z,71.95
2018-03-24T20:36:22.453Z,71.98
2018-03-24T20:38:50.310Z,71.62
2018-03-24T20:41:18.191Z,71.55
2018-03-24T20:43:45.920Z,71.69
2018-03-24T20:46:13.731Z,70.99
2018-03-24T20:48:41.576Z,72.21
2018-03-24T20:51:09.523Z,72.83
2018-03-24T20:53:37.527Z,72.36
2018-03-24T20:56:05.705Z,71.91
2018-03-24T20:58:33.560Z,72.62
2018-03-24T21:01:02.265Z,73.09
2018-03-24T21:03:30.117Z,72.37
2018-03-24T21:05:58.050Z,73.14
2018-03-24T21:08:26.657Z,72.77
2018-03-24T21:10:54.525Z,73.84
2018-03-24T21:13:22.414Z,74.95
2018-03-24T21:15:50.466Z,74.23
2018-03-24T21:18:18.234Z,73.47
2018-03-24T21:20:46.146Z,74.70
2018-03-24T21:23:14.041Z,75.29
2018-03-24T21:25:42.770Z,73.99
2018-03-24T21:28:11.237Z,72.49
2018-03-24T21:30:39.095Z,72.36
2018-03-24T21:33:06.986Z,72.48
2018-03-24T21:35:34.760Z,72.60
2018-03-24T21:38:02.624Z,74.24
2018-03-24T21:40:30.280Z,74.62
2018-03-24T21:42:57.941Z,75.57
2018-03-24T21:45:25.609Z,75.53
2018-03-24T21:47:53.872Z,74.54
2018-03-24T21:50:21.543Z,74.86
2018-03-24T21:52:49.200Z,75.03
2018-03-24T21:55:16.963Z,74.57
2018-03-24T21:57:44.680Z,74.15
2018-03-24T22:00:12.492Z,74.47
2018-03-24T22:02:40.832Z,74.56
2018-03-24T22:05:08.828Z,75.76
2018-03-24T22:07:36.821Z,76.17
2018-03-24T22:10:04.781Z,75.88
2018-03-24T22:12:32.667Z,74.57
2018-03-24T22:15:01.350Z,76.42
2018-03-24T22:17:29.414Z,76.35
2018-03-24T22:19:57.297Z,76.79
2018-03-24T22:22:25.298Z,76.09
2018-03-24T22:24:53.222Z,76.23
2018-03-24T22:27:21.888Z,76.79
2018-03-24T22:29:49.977Z,77.19
2018-03-24T22:32:19.386Z,76.75
2018-03-24T22:34:47.212Z,76.45
2018-03-24T22:37:15.670Z,76.59
2018-03-24T22:39:43.555Z,76.76
2018-03-24T22:42:12.185Z,76.08
2018-03-24T22:44:39.843Z,76.91
2018-03-24T22:47:07.519Z,76.53
2018-03-24T22:49:37.976Z,77.29
2018-03-24T22:52:05.699Z,77.40
2018-03-24T22:54:33.349Z,76.41
2018-03-24T22:57:01.224Z,76.11
2018-03-24T22:59:29.086Z,76.32
2018-03-24T23:01:56.817Z,76.46
2018-03-24T23:04:24.622Z,77.17
2018-03-24T23:06:52.627Z,76.89
2018-03-24T23:09:20.280Z,77.07
2018-03-24T23:11:47.962Z,77.46
2018-03-24T23:14:16.016Z,77.35
2018-03-24T23:16:43.640Z,77.61
2018-03-24T23:19:11.279Z,77.21
2018-03-24T23:21:38.977Z,76.41
2018-03-24T23:24:06.877Z,76.10
2018-03-24T23:26:34.738Z,76.71
2018-03-24T23:29:02.580Z,76.98
2018-03-24T23:31:30.441Z,76.61
2018-03-24T23:33:58.037Z,76.70
2018-03-24T23:36:25.681Z,76.25
2018-03-24T23:38:53.436Z,76.57
2018-03-24T23:41:21.306Z,76.56
2018-03-24T23:43:48.888Z,77.04
2018-03-24T23:46:16.519Z,77.33
2018-03-24T23:48:44.274Z,77.20
2018-03-24T23:51:11.927Z,76.74
2018-03-24T23:53:39.528Z,77.12
2018-03-24T23:56:07.277Z,77.69
2018-03-24T23:58:34.868Z,77.21
